Time;durP1;ratioP1;P1;durP2;ratioP2;P2;SDS_P1;SDS_P2;PMS_P1;PMS_P2;Temp;Humidity;BMP_temperature;BMP_pressure;BME280_temperature;BME280_humidity;BME280_pressure;Samples;Min_cycle;Max_cycle;Signal;HPM_P1;HPM_P2
2021/11/14 00:00:45;;;;;;;18.23;11.75;;;;;;;12.86;76.61;101851.03;5029807;28;20543;-71
2021/11/14 00:03:11;;;;;;;20.55;11.52;;;;;;;12.86;76.63;101853.66;5023259;28;20135;-71
2021/11/14 00:05:37;;;;;;;18.55;10.88;;;;;;;12.85;76.80;101852.75;5030838;28;20051;-72
2021/11/14 00:08:03;;;;;;;19.83;10.55;;;;;;;12.86;76.86;101853.66;5030114;28;20425;-71
2021/11/14 00:10:30;;;;;;;18.90;10.60;;;;;;;12.86;76.62;101853.66;5025882;28;20155;-71
2021/11/14 00:12:56;;;;;;;15.90;10.52;;;;;;;12.84;76.45;101852.72;5014219;28;20908;-71
2021/11/14 00:15:22;;;;;;;16.25;9.65;;;;;;;12.86;76.34;101859.75;5021840;28;20044;-72
2021/11/14 00:17:47;;;;;;;15.73;10.07;;;;;;;12.84;76.80;101855.34;5032478;28;20094;-72
2021/11/14 00:20:13;;;;;;;16.88;10.10;;;;;;;12.83;76.55;101866.66;5029319;28;20068;-72
2021/11/14 00:22:38;;;;;;;16.35;9.90;;;;;;;12.85;76.71;101868.47;5025703;28;20071;-71
2021/11/14 00:25:06;;;;;;;15.65;10.27;;;;;;;12.84;76.60;101865.81;5022697;28;20569;-72
2021/11/14 00:27:31;;;;;;;18.25;9.60;;;;;;;12.85;76.66;101864.97;5020897;28;20101;-71
2021/11/14 00:29:56;;;;;;;19.25;10.27;;;;;;;12.89;76.66;101883.38;5026701;28;20045;-72
2021/11/14 00:32:23;;;;;;;17.80;10.30;;;;;;;12.92;76.57;101882.56;5028317;28;20893;-72
2021/11/14 00:34:51;;;;;;;17.25;9.23;;;;;;;12.92;76.67;101879.94;5025319;28;20040;-72
2021/11/14 00:37:16;;;;;;;16.13;9.38;;;;;;;12.91;76.58;101875.53;5018094;28;20053;-71
2021/11/14 00:39:42;;;;;;;18.42;9.77;;;;;;;12.90;76.52;101879.91;5032912;28;20028;-73
2021/11/14 00:42:07;;;;;;;18.35;10.18;;;;;;;12.88;76.35;101876.34;5020999;28;20123;-72
2021/11/14 00:44:33;;;;;;;17.27;9.93;;;;;;;12.86;76.36;101883.31;5026101;28;20048;-71
2021/11/14 00:46:58;;;;;;;15.25;9.90;;;;;;;12.86;76.32;101885.94;5021596;28;20221;-71
2021/11/14 00:49:24;;;;;;;16.98;9.95;;;;;;;12.87;76.56;101873.69;5046323;28;20130;-71
2021/11/14 00:51:49;;;;;;;20.42;9.80;;;;;;;12.90;76.48;101879.00;5023329;28;20720;-71
2021/11/14 00:54:15;;;;;;;15.27;9.68;;;;;;;12.89;76.49;101877.25;5024643;28;20025;-73
2021/11/14 00:56:41;;;;;;;18.70;9.85;;;;;;;12.91;76.65;101873.81;5018550;28;20032;-71
2021/11/14 00:59:06;;;;;;;16.35;9.73;;;;;;;12.95;76.51;101885.22;5032774;28;20083;-72
2021/11/14 01:01:32;;;;;;;19.27;10.02;;;;;;;12.92;76.31;101878.22;5023455;28;20053;-72
2021/11/14 01:03:58;;;;;;;16.35;10.00;;;;;;;12.92;76.02;101879.94;5030971;28;20120;-72
2021/11/14 01:06:24;;;;;;;16.25;10.20;;;;;;;12.88;76.43;101886.81;5025771;28;20113;-71
2021/11/14 01:08:49;;;;;;;17.40;10.15;;;;;;;12.89;76.17;101890.31;5017495;28;20568;-71
2021/11/14 01:11:15;;;;;;;18.75;10.20;;;;;;;12.91;76.64;101891.25;5029082;28;20048;-71
2021/11/14 01:13:41;;;;;;;15.82;10.50;;;;;;;12.93;76.44;101906.13;5031747;28;20039;-71
2021/11/14 01:16:09;;;;;;;16.75;10.15;;;;;;;12.95;76.57;101898.31;5021465;28;20995;-72
2021/11/14 01:18:34;;;;;;;18.52;10.68;;;;;;;12.97;76.52;101901.84;5031988;28;20064;-72
2021/11/14 01:21:02;;;;;;;22.77;12.77;;;;;;;12.96;76.35;101903.56;5018058;28;20784;-71
2021/11/14 01:23:27;;;;;;;24.90;11.68;;;;;;;12.99;76.17;101906.25;5019959;28;20047;-72
2021/11/14 01:25:53;;;;;;;20.98;11.48;;;;;;;13.01;76.13;101914.13;5028870;28;20143;-72
2021/11/14 01:28:19;;;;;;;20.42;10.98;;;;;;;13.02;76.06;101901.09;5028841;28;20170;-71
2021/11/14 01:30:48;;;;;;;18.20;10.65;;;;;;;13.06;75.92;101908.97;5017024;28;20040;-72
2021/11/14 01:33:14;;;;;;;22.52;10.95;;;;;;;13.06;75.78;101909.84;5034733;28;20064;-72
2021/11/14 01:35:41;;;;;;;16.45;10.25;;;;;;;13.07;75.60;101918.59;5024544;28;20032;-71
2021/11/14 01:38:08;;;;;;;20.05;10.70;;;;;;;13.05;75.45;101917.72;5020442;28;20048;-72
2021/11/14 01:40:42;;;;;;;16.45;10.52;;;;;;;13.05;75.70;101915.09;5027591;28;20044;-71
2021/11/14 01:43:09;;;;;;;20.15;11.25;;;;;;;12.99;75.67;101916.72;5047021;28;20133;-71
2021/11/14 01:45:36;;;;;;;22.67;12.23;;;;;;;12.98;75.50;101922.81;5047353;28;20036;-71
2021/11/14 01:48:03;;;;;;;18.90;11.75;;;;;;;12.98;75.82;101921.94;5049259;28;20047;-71
2021/11/14 01:50:28;;;;;;;20.50;11.13;;;;;;;13.00;75.80;101928.94;5043380;28;20040;-71
2021/11/14 01:52:54;;;;;;;20.52;11.68;;;;;;;13.04;75.48;101929.91;5031614;28;20044;-71
2021/11/14 01:55:25;;;;;;;21.08;12.00;;;;;;;12.83;76.12;101935.56;5049923;28;20058;-70
2021/11/14 01:57:52;;;;;;;18.73;11.00;;;;;;;12.72;76.64;101933.59;5046091;28;20048;-71
2021/11/14 02:00:36;;;;;;;16.55;10.07;;;;;;;12.68;76.87;101934.38;5053597;28;20099;-72
2021/11/14 02:03:02;;;;;;;15.90;10.02;;;;;;;12.66;76.66;101933.47;5029732;28;20468;-71
2021/11/14 02:05:29;;;;;;;20.42;12.13;;;;;;;12.66;76.82;101944.81;5047095;28;20048;-71
2021/11/14 02:07:57;;;;;;;20.70;12.63;;;;;;;12.93;75.87;101936.63;5029701;28;20036;-71
2021/11/14 02:10:24;;;;;;;22.05;12.35;;;;;;;12.98;75.43;101940.25;5045511;28;20350;-71
2021/11/14 02:12:49;;;;;;;21.05;12.38;;;;;;;12.95;75.59;101941.06;5033698;28;20649;-71
2021/11/14 02:15:15;;;;;;;21.25;12.70;;;;;;;12.98;75.47;101948.13;5045709;28;20038;-71
2021/11/14 02:17:40;;;;;;;21.80;12.90;;;;;;;12.99;75.52;101944.66;5043620;28;20526;-71
2021/11/14 02:20:07;;;;;;;21.48;12.45;;;;;;;12.99;75.47;101952.50;5044839;28;20141;-71
2021/11/14 02:22:33;;;;;;;20.85;12.73;;;;;;;12.96;75.55;101957.66;5044239;28;20056;-71
2021/11/14 02:24:59;;;;;;;22.98;13.27;;;;;;;12.95;75.55;101964.63;5036000;28;20227;-72
2021/11/14 02:27:25;;;;;;;23.20;13.10;;;;;;;12.97;75.60;101965.56;5048930;28;20075;-72
2021/11/14 02:29:50;;;;;;;21.95;14.07;;;;;;;12.96;75.61;101962.88;5061499;28;20123;-72
2021/11/14 02:32:16;;;;;;;26.25;14.63;;;;;;;12.96;75.61;101969.00;5042120;28;20066;-72
2021/11/14 02:34:42;;;;;;;21.08;13.65;;;;;;;13.00;75.58;101970.84;5040296;28;20237;-71
2021/11/14 02:37:08;;;;;;;26.00;15.52;;;;;;;13.01;75.57;101969.09;5049563;28;20059;-72
2021/11/14 02:39:34;;;;;;;24.17;14.55;;;;;;;13.04;75.59;101974.41;5043836;28;20168;-71
2021/11/14 02:41:59;;;;;;;24.30;15.38;;;;;;;13.01;75.39;101964.75;5046881;28;20052;-71
2021/11/14 02:44:25;;;;;;;25.33;15.15;;;;;;;13.02;75.46;101979.63;5046347;28;20510;-70
2021/11/14 02:46:51;;;;;;;27.50;15.35;;;;;;;13.03;75.63;101980.50;5028703;28;20919;-71
2021/11/14 02:49:16;;;;;;;23.92;15.25;;;;;;;13.04;75.67;101977.03;5047905;28;20102;-71
2021/11/14 02:51:42;;;;;;;27.65;15.70;;;;;;;13.04;75.65;101981.38;5042013;28;20052;-72
2021/11/14 02:54:07;;;;;;;25.70;15.50;;;;;;;13.03;75.75;101980.50;5053678;28;20122;-72
2021/11/14 02:56:33;;;;;;;23.98;15.23;;;;;;;13.05;75.70;101980.53;5038671;28;20041;-72
2021/11/14 02:58:58;;;;;;;25.25;15.40;;;;;;;13.02;76.17;101987.47;5038567;28;20044;-73
2021/11/14 03:01:28;;;;;;;26.30;16.33;;;;;;;13.03;75.93;101985.72;5044526;28;20052;-72
2021/11/14 03:03:54;;;;;;;25.73;16.17;;;;;;;13.02;75.80;101990.09;5043797;28;20802;-72
2021/11/14 03:06:20;;;;;;;24.23;15.35;;;;;;;12.98;76.07;101985.66;5047457;28;20238;-73
2021/11/14 03:08:45;;;;;;;27.30;16.20;;;;;;;12.94;76.15;101991.66;5029286;28;20051;-73
2021/11/14 03:11:12;;;;;;;27.70;17.48;;;;;;;12.92;76.04;101995.09;5054717;28;20043;-72
2021/11/14 03:13:38;;;;;;;29.10;17.13;;;;;;;12.89;76.17;101995.00;5045491;28;20538;-72
2021/11/14 03:16:08;;;;;;;28.45;16.05;;;;;;;12.92;76.24;101995.97;5044236;28;20048;-71
2021/11/14 03:18:33;;;;;;;26.90;16.70;;;;;;;12.91;76.50;102002.06;5045796;28;20040;-71
2021/11/14 03:20:59;;;;;;;27.20;16.30;;;;;;;12.97;76.27;102002.19;5029875;28;20337;-71
2021/11/14 03:23:27;;;;;;;27.23;16.52;;;;;;;12.94;76.39;102004.72;5047600;28;20187;-71
2021/11/14 03:25:53;;;;;;;27.33;16.17;;;;;;;12.92;76.30;102014.31;5044437;28;20060;-71
2021/11/14 03:28:20;;;;;;;30.20;16.63;;;;;;;12.95;76.36;102010.84;5049501;28;20067;-72
2021/11/14 03:30:46;;;;;;;30.70;17.38;;;;;;;12.93;76.70;102018.66;5035600;28;20051;-71
2021/11/14 03:33:14;;;;;;;33.13;17.45;;;;;;;12.94;76.66;102016.94;5051419;28;20501;-72
2021/11/14 03:35:44;;;;;;;32.28;17.38;;;;;;;12.94;76.87;102025.66;5051297;28;20093;-72
2021/11/14 03:38:10;;;;;;;28.60;16.92;;;;;;;12.94;76.77;102030.91;5045821;28;20132;-72
2021/11/14 03:40:38;;;;;;;29.17;16.90;;;;;;;12.97;76.82;102028.38;5056242;28;20048;-72
2021/11/14 03:43:04;;;;;;;27.65;16.00;;;;;;;12.99;76.96;102029.28;5036672;28;20127;-72
2021/11/14 03:45:30;;;;;;;28.77;16.50;;;;;;;13.00;76.67;102036.28;5052235;28;20138;-71
2021/11/14 03:47:55;;;;;;;31.05;16.88;;;;;;;13.01;76.71;102029.31;5048761;28;20484;-71
2021/11/14 03:50:21;;;;;;;30.02;16.48;;;;;;;13.03;76.73;102035.47;5048651;28;20054;-72
2021/11/14 03:52:46;;;;;;;27.08;16.23;;;;;;;13.04;76.66;102038.97;5042528;28;20036;-71
2021/11/14 03:55:12;;;;;;;28.00;15.95;;;;;;;13.06;76.57;102037.25;5050850;28;20756;-72
2021/11/14 03:57:42;;;;;;;32.47;16.58;;;;;;;13.03;76.56;102038.09;5047694;28;20648;-72
2021/11/14 04:00:16;;;;;;;28.98;16.27;;;;;;;13.00;76.51;102036.28;5048131;28;20509;-71
2021/11/14 04:02:42;;;;;;;29.95;16.48;;;;;;;12.98;76.53;102035.38;5045600;28;20546;-72
2021/11/14 04:05:08;;;;;;;31.30;17.05;;;;;;;12.99;76.50;102041.50;5052178;28;20048;-72
2021/11/14 04:07:33;;;;;;;26.65;16.30;;;;;;;12.98;76.47;102043.22;5045408;28;20056;-72
2021/11/14 04:09:59;;;;;;;31.40;17.50;;;;;;;12.98;76.73;102039.72;5049937;28;20032;-72
2021/11/14 04:12:24;;;;;;;33.50;17.58;;;;;;;12.99;76.92;102051.97;5050616;28;20534;-72
2021/11/14 04:14:51;;;;;;;31.27;16.80;;;;;;;12.99;76.78;102054.59;5032833;28;20539;-72
2021/11/14 04:17:17;;;;;;;31.13;16.45;;;;;;;13.01;76.68;102055.50;5043236;28;20423;-71
2021/11/14 04:19:42;;;;;;;28.30;16.42;;;;;;;13.00;76.80;102057.22;5068289;27;20499;-71
2021/11/14 04:22:08;;;;;;;32.47;16.73;;;;;;;13.02;76.76;102057.25;5049607;28;20334;-72
2021/11/14 04:24:33;;;;;;;33.25;16.98;;;;;;;12.98;76.87;102065.91;5044167;28;20055;-71
2021/11/14 04:26:58;;;;;;;32.15;17.52;;;;;;;12.98;76.84;102063.28;5036162;28;20941;-72
2021/11/14 04:29:24;;;;;;;33.55;17.38;;;;;;;13.00;76.64;102067.69;5046670;28;20474;-73
2021/11/14 04:31:49;;;;;;;32.20;16.75;;;;;;;12.96;76.84;102071.09;5045294;28;20569;-72
2021/11/14 04:34:15;;;;;;;32.55;16.63;;;;;;;13.00;76.80;102074.66;5047926;28;20032;-71
2021/11/14 04:36:40;;;;;;;33.30;16.92;;;;;;;12.99;76.44;102073.78;5046451;28;20039;-72
2021/11/14 04:39:06;;;;;;;33.67;16.40;;;;;;;13.01;76.41;102076.44;5036782;28;20105;-72
2021/11/14 04:41:32;;;;;;;31.98;16.52;;;;;;;12.97;76.62;102075.50;5046111;28;20047;-72
2021/11/14 04:43:57;;;;;;;32.10;16.60;;;;;;;12.98;76.52;102079.00;5052116;28;20070;-71
2021/11/14 04:46:23;;;;;;;32.05;16.17;;;;;;;12.99;76.69;102075.53;5043126;28;20178;-72
2021/11/14 04:48:49;;;;;;;30.23;15.75;;;;;;;12.94;76.68;102080.63;5041354;28;20130;-71
2021/11/14 04:51:14;;;;;;;32.42;16.20;;;;;;;12.98;76.32;102085.13;5039988;28;21713;-71
2021/11/14 04:53:40;;;;;;;33.90;16.65;;;;;;;13.01;76.37;102097.38;5046813;28;20772;-71
2021/11/14 04:56:05;;;;;;;32.50;15.95;;;;;;;12.96;76.39;102089.41;5051132;28;20131;-72
2021/11/14 04:58:31;;;;;;;31.35;16.02;;;;;;;12.98;76.39;102092.97;5044126;28;20071;-71
2021/11/14 05:00:56;;;;;;;32.85;16.50;;;;;;;12.99;76.46;102099.09;5043736;28;20036;-72
2021/11/14 05:03:22;;;;;;;33.03;15.93;;;;;;;12.99;76.47;102099.94;5048248;28;20028;-72
2021/11/14 05:05:48;;;;;;;31.95;15.52;;;;;;;12.99;76.57;102099.09;5047989;28;20044;-73
2021/11/14 05:08:14;;;;;;;31.05;15.85;;;;;;;12.96;76.21;102096.38;5039366;28;20119;-72
2021/11/14 05:10:40;;;;;;;34.85;15.90;;;;;;;12.98;76.09;102090.34;5040383;28;20103;-72
2021/11/14 05:13:05;;;;;;;31.65;15.43;;;;;;;13.00;76.16;102099.09;5044648;28;20048;-73
2021/11/14 05:15:32;;;;;;;34.05;15.85;;;;;;;12.99;76.25;102094.72;5041992;28;20121;-72
2021/11/14 05:17:57;;;;;;;32.30;15.45;;;;;;;12.99;76.29;102099.09;5044690;28;20040;-72
2021/11/14 05:20:22;;;;;;;32.67;15.90;;;;;;;12.99;76.24;102101.72;5042068;28;20479;-73
2021/11/14 05:22:48;;;;;;;30.60;14.80;;;;;;;12.98;76.34;102111.28;5037140;28;20433;-73
2021/11/14 05:25:14;;;;;;;32.70;15.57;;;;;;;12.97;76.20;102113.88;5046818;28;20731;-72
2021/11/14 05:27:39;;;;;;;32.25;15.23;;;;;;;12.93;76.27;102118.13;5044308;28;20127;-73
2021/11/14 05:30:06;;;;;;;36.70;15.70;;;;;;;12.97;76.12;102116.50;5044391;28;20132;-73
2021/11/14 05:32:31;;;;;;;31.58;15.25;;;;;;;12.96;76.05;102119.94;5043508;28;20044;-73
2021/11/14 05:34:57;;;;;;;32.40;14.98;;;;;;;12.95;76.10;102132.16;5039477;28;21464;-72
2021/11/14 05:37:22;;;;;;;33.35;15.48;;;;;;;12.94;76.21;102130.38;5041014;28;20055;-72
2021/11/14 05:39:48;;;;;;;33.75;16.00;;;;;;;12.95;76.05;102133.88;5047504;28;20554;-72
2021/11/14 05:42:13;;;;;;;36.28;15.57;;;;;;;12.95;75.95;102140.00;5050061;28;20066;-72
2021/11/14 05:44:39;;;;;;;33.55;15.35;;;;;;;12.93;76.28;102141.69;5038063;28;20563;-72
2021/11/14 05:47:04;;;;;;;34.22;15.20;;;;;;;12.86;76.30;102142.41;5041420;28;20184;-71
2021/11/14 05:49:30;;;;;;;31.88;14.95;;;;;;;12.91;76.14;102147.75;5048892;28;20085;-73
2021/11/14 05:51:55;;;;;;;34.75;14.82;;;;;;;12.90;76.03;102149.47;5049612;28;20040;-73
2021/11/14 05:54:21;;;;;;;34.65;14.73;;;;;;;12.87;76.05;102151.13;5040281;28;20070;-72
2021/11/14 05:56:46;;;;;;;34.80;14.65;;;;;;;12.84;76.05;102156.28;5027315;28;20047;-72
2021/11/14 05:59:34;;;;;;;28.75;13.82;;;;;;;12.84;76.00;102151.94;5028173;28;20075;-72
2021/11/14 06:02:09;;;;;;;30.95;14.07;;;;;;;12.81;75.92;102164.06;5043354;28;20035;-72
2021/11/14 06:05:18;;;;;;;33.08;14.20;;;;;;;12.80;75.96;102167.56;5050555;28;20044;-72
2021/11/14 06:07:27;;;;;;;31.52;14.05;;;;;;;12.86;75.65;102162.47;5033216;28;20032;-72
2021/11/14 06:09:53;;;;;;;30.25;13.77;;;;;;;12.87;75.43;102170.34;5041663;28;20118;-72
2021/11/14 06:12:18;;;;;;;31.25;13.48;;;;;;;12.85;75.27;102171.16;5046709;28;20115;-72
2021/11/14 06:14:43;;;;;;;28.85;13.38;;;;;;;12.76;75.37;102174.41;5034182;28;20048;-72
2021/11/14 06:17:09;;;;;;;29.38;13.80;;;;;;;12.74;75.15;102181.38;5048586;28;20716;-72
2021/11/14 06:19:34;;;;;;;27.95;13.05;;;;;;;12.73;75.02;102176.97;5038012;28;20047;-71
2021/11/14 06:22:00;;;;;;;30.63;14.30;;;;;;;12.66;75.24;102179.38;5051502;28;20382;-71
2021/11/14 06:24:25;;;;;;;31.10;14.00;;;;;;;12.61;75.55;102184.50;5040266;28;20408;-71
2021/11/14 06:26:50;;;;;;;33.53;14.15;;;;;;;12.59;75.49;102187.09;5036526;28;20443;-71
2021/11/14 06:29:16;;;;;;;31.80;14.02;;;;;;;12.59;75.52;102188.81;5043729;28;20028;-72
2021/11/14 06:31:41;;;;;;;32.85;14.10;;;;;;;12.57;75.50;102191.38;5044428;28;20047;-71
2021/11/14 06:34:06;;;;;;;30.40;13.82;;;;;;;12.58;75.67;102206.22;5045923;28;20678;-71
2021/11/14 06:36:33;;;;;;;30.17;13.73;;;;;;;12.59;75.46;102209.75;5044472;28;20121;-73
2021/11/14 06:38:59;;;;;;;30.25;13.35;;;;;;;12.60;75.37;102212.41;5030545;28;20512;-72
2021/11/14 06:41:24;;;;;;;31.35;13.93;;;;;;;12.55;75.37;102213.13;5048686;28;20036;-72
2021/11/14 06:43:49;;;;;;;35.17;14.63;;;;;;;12.58;75.17;102213.19;5047169;28;20112;-72
2021/11/14 06:46:15;;;;;;;31.40;14.20;;;;;;;12.53;75.25;102220.03;5046074;28;20048;-72
2021/11/14 06:48:41;;;;;;;33.53;14.80;;;;;;;12.58;75.06;102223.66;5042034;28;20170;-72
2021/11/14 06:51:07;;;;;;;33.72;14.52;;;;;;;12.47;75.23;102230.34;5041722;28;21000;-72
2021/11/14 06:53:32;;;;;;;30.70;14.23;;;;;;;12.49;75.18;102232.16;5046184;28;20033;-72
2021/11/14 06:55:57;;;;;;;36.78;14.73;;;;;;;12.50;74.88;102233.06;5045434;28;20644;-72
2021/11/14 06:58:23;;;;;;;33.42;14.75;;;;;;;12.53;74.93;102241.84;5041462;28;20160;-72
2021/11/14 07:00:50;;;;;;;34.25;14.65;;;;;;;12.52;75.19;102237.47;5034680;28;20115;-71
2021/11/14 07:03:15;;;;;;;35.13;14.57;;;;;;;12.55;75.10;102245.41;5047620;28;20934;-73
2021/11/14 07:05:41;;;;;;;37.45;15.50;;;;;;;12.51;75.05;102250.50;5044710;28;20040;-72
2021/11/14 07:08:08;;;;;;;37.78;16.15;;;;;;;12.46;75.16;102252.09;5053982;28;20039;-72
2021/11/14 07:10:33;;;;;;;37.80;15.60;;;;;;;12.47;75.13;102265.22;5047771;28;20480;-73
2021/11/14 07:12:59;;;;;;;39.15;17.33;;;;;;;12.46;75.16;102258.22;5042180;28;20036;-72
2021/11/14 07:15:24;;;;;;;37.58;16.02;;;;;;;12.48;75.50;102271.34;5048976;28;20039;-72
2021/11/14 07:17:50;;;;;;;41.33;16.77;;;;;;;12.41;75.35;102274.63;5051065;28;20052;-72
2021/11/14 07:20:17;;;;;;;41.83;16.65;;;;;;;12.50;75.08;102280.13;5053343;28;20043;-72
2021/11/14 07:22:44;;;;;;;39.72;15.98;;;;;;;12.46;74.85;102289.59;5045129;28;20036;-72
2021/11/14 07:25:14;;;;;;;38.90;16.98;;;;;;;12.41;75.12;102293.84;5037961;28;20052;-72
2021/11/14 07:27:43;;;;;;;38.22;16.25;;;;;;;12.42;75.27;102300.84;5046708;28;20035;-72
2021/11/14 07:30:11;;;;;;;40.17;16.58;;;;;;;12.52;74.94;102304.59;5044342;28;20893;-71
2021/11/14 07:32:40;;;;;;;43.45;16.65;;;;;;;12.62;74.79;102300.53;5048596;28;20052;-72
2021/11/14 07:35:09;;;;;;;42.28;17.20;;;;;;;12.59;74.44;102304.81;5041286;28;20044;-72
2021/11/14 07:37:34;;;;;;;41.13;16.98;;;;;;;12.47;74.68;102311.44;5058259;28;20044;-73
2021/11/14 07:40:00;;;;;;;41.67;18.08;;;;;;;12.53;74.41;102315.09;5038327;28;20359;-72
2021/11/14 07:42:26;;;;;;;41.90;18.23;;;;;;;12.55;74.81;102317.78;5047310;28;20176;-71
2021/11/14 07:44:51;;;;;;;42.75;18.02;;;;;;;12.59;74.45;102323.13;5036896;28;20059;-72
2021/11/14 07:47:16;;;;;;;44.58;17.67;;;;;;;12.64;74.47;102327.59;5050754;28;20070;-72
2021/11/14 07:49:45;;;;;;;44.47;18.27;;;;;;;12.49;74.18;102328.06;5053679;28;20031;-72
2021/11/14 07:52:10;;;;;;;40.72;17.80;;;;;;;12.47;74.31;102327.13;5041721;28;20080;-72
2021/11/14 07:54:36;;;;;;;40.17;18.33;;;;;;;12.60;73.85;102339.72;5054721;28;20075;-72
2021/11/14 07:57:01;;;;;;;39.80;17.70;;;;;;;12.57;73.65;102340.50;5034751;28;20710;-72
2021/11/14 07:59:26;;;;;;;39.97;18.13;;;;;;;12.75;73.11;102340.13;5052350;28;20040;-72
2021/11/14 08:01:52;;;;;;;41.55;17.60;;;;;;;12.78;73.23;102347.19;5047969;28;20495;-72
2021/11/14 08:04:18;;;;;;;38.13;17.63;;;;;;;12.68;72.77;102347.78;5053143;28;20629;-72
2021/11/14 08:06:44;;;;;;;38.38;17.95;;;;;;;12.70;72.64;102343.47;5043062;28;20036;-71
2021/11/14 08:09:09;;;;;;;43.33;18.20;;;;;;;12.78;72.68;102349.81;5030955;28;20147;-71
2021/11/14 08:11:34;;;;;;;40.55;18.27;;;;;;;12.78;72.32;102350.69;5050373;28;20367;-73
2021/11/14 08:14:00;;;;;;;40.28;18.48;;;;;;;12.80;72.15;102353.34;5045259;28;20135;-72
2021/11/14 08:16:25;;;;;;;43.33;18.38;;;;;;;12.84;72.30;102363.06;5051994;28;20078;-72
2021/11/14 08:18:51;;;;;;;37.53;17.73;;;;;;;12.75;72.08;102371.53;5039445;28;20032;-72
2021/11/14 08:21:16;;;;;;;42.45;18.55;;;;;;;12.93;72.01;102366.81;5058901;27;20044;-71
2021/11/14 08:23:41;;;;;;;42.90;18.63;;;;;;;12.96;71.99;102366.91;5048793;28;20036;-72
2021/11/14 08:26:07;;;;;;;38.75;18.08;;;;;;;12.91;71.69;102368.50;5046558;28;21964;-72
2021/11/14 08:28:34;;;;;;;39.03;18.77;;;;;;;12.91;71.66;102365.91;5053322;28;20040;-72
2021/11/14 08:30:59;;;;;;;38.90;18.58;;;;;;;12.89;71.76;102364.97;5037430;28;20288;-72
2021/11/14 08:33:25;;;;;;;40.53;18.60;;;;;;;12.88;71.93;102359.66;5056908;28;20573;-73
2021/11/14 08:35:51;;;;;;;44.42;19.77;;;;;;;12.64;72.58;102366.84;5053705;28;20036;-71
2021/11/14 08:38:17;;;;;;;42.97;19.42;;;;;;;12.87;72.41;102368.38;5026017;28;20062;-71
2021/11/14 08:40:43;;;;;;;44.45;19.73;;;;;;;12.91;72.25;102370.25;5044716;28;20548;-72
2021/11/14 08:43:09;;;;;;;41.63;18.85;;;;;;;12.81;72.62;102373.44;5036738;28;20049;-72
2021/11/14 08:45:36;;;;;;;43.00;19.58;;;;;;;12.82;72.50;102381.31;5052908;28;20135;-72
2021/11/14 08:48:03;;;;;;;39.25;18.95;;;;;;;12.92;72.46;102391.22;5049562;28;20035;-72
2021/11/14 08:50:29;;;;;;;43.13;19.65;;;;;;;12.95;72.29;102383.44;5051797;28;20051;-73
2021/11/14 08:52:55;;;;;;;41.28;18.80;;;;;;;12.98;72.22;102387.91;5034184;28;20036;-72
2021/11/14 08:55:24;;;;;;;40.28;19.38;;;;;;;13.03;72.09;102381.03;5045471;28;20444;-73
2021/11/14 08:57:52;;;;;;;41.65;18.80;;;;;;;13.12;71.97;102386.56;5037681;28;20050;-71
2021/11/14 09:00:21;;;;;;;43.95;19.02;;;;;;;12.95;71.97;102385.19;5045373;28;20036;-71
2021/11/14 09:02:51;;;;;;;40.20;19.02;;;;;;;13.07;71.76;102389.84;5038354;28;20043;-72
2021/11/14 09:05:17;;;;;;;43.25;19.63;;;;;;;13.26;71.71;102394.78;5037994;28;20627;-72
2021/11/14 09:07:44;;;;;;;42.70;19.50;;;;;;;13.20;71.29;102390.28;5044069;28;20036;-72
2021/11/14 09:10:10;;;;;;;42.30;19.98;;;;;;;13.22;71.43;102399.06;5045492;28;20055;-71
2021/11/14 09:12:35;;;;;;;44.70;20.65;;;;;;;13.23;71.28;102405.19;5043940;28;20371;-71
2021/11/14 09:15:01;;;;;;;42.38;19.70;;;;;;;13.11;71.39;102402.22;5030135;28;20638;-71
2021/11/14 09:17:26;;;;;;;48.30;20.45;;;;;;;13.19;71.01;102409.44;5042674;28;20227;-71
2021/11/14 09:19:52;;;;;;;42.25;20.08;;;;;;;13.19;71.29;102408.56;5048146;28;20055;-71
2021/11/14 09:22:17;;;;;;;44.58;20.67;;;;;;;13.15;71.50;102402.38;5042002;28;20044;-70
2021/11/14 09:24:43;;;;;;;45.22;19.95;;;;;;;13.27;71.28;102407.94;5039286;28;20044;-71
2021/11/14 09:27:08;;;;;;;40.65;19.08;;;;;;;13.32;70.83;102410.66;5045996;28;20113;-70
2021/11/14 09:29:34;;;;;;;38.88;19.42;;;;;;;13.39;70.09;102412.59;5041678;28;20036;-70
2021/11/14 09:32:00;;;;;;;39.70;19.67;;;;;;;13.28;71.15;102414.94;5049546;28;20161;-70
2021/11/14 09:34:25;;;;;;;40.13;19.40;;;;;;;13.56;70.21;102421.78;5045285;28;20170;-70
2021/11/14 09:36:51;;;;;;;39.83;20.23;;;;;;;13.61;69.67;102421.88;5034497;28;20036;-70
2021/11/14 09:39:16;;;;;;;39.17;19.23;;;;;;;13.39;69.53;102423.97;5040458;28;20035;-71
2021/11/14 09:41:46;;;;;;;38.10;19.75;;;;;;;13.39;69.67;102438.81;5049213;28;20044;-71
2021/11/14 09:44:15;;;;;;;37.75;19.08;;;;;;;13.33;69.90;102439.53;5051000;28;20052;-70
2021/11/14 09:47:11;;;;;;;40.00;19.35;;;;;;;13.56;69.79;102447.09;5036962;28;20043;-70
2021/11/14 09:49:37;;;;;;;37.58;18.65;;;;;;;13.53;69.51;102445.31;5044011;28;20052;-70
2021/11/14 09:52:05;;;;;;;38.30;19.13;;;;;;;13.61;69.22;102448.09;5049001;28;20040;-73
2021/11/14 09:54:31;;;;;;;37.78;18.63;;;;;;;13.54;69.95;102448.81;5041787;28;20047;-71
2021/11/14 09:56:58;;;;;;;33.78;18.05;;;;;;;13.40;69.31;102464.16;5021262;28;20234;-71
2021/11/14 09:59:23;;;;;;;34.35;17.75;;;;;;;13.65;68.89;102458.72;5058173;28;20031;-72
2021/11/14 10:01:51;;;;;;;35.53;18.70;;;;;;;13.67;69.46;102462.25;5040999;28;20035;-71
2021/11/14 10:04:16;;;;;;;33.40;18.35;;;;;;;13.70;68.91;102462.34;5028303;28;20764;-71
2021/11/14 10:06:42;;;;;;;35.72;18.58;;;;;;;13.64;69.53;102463.91;5045794;28;20032;-70
2021/11/14 10:09:07;;;;;;;36.95;18.58;;;;;;;13.50;69.79;102465.28;5036638;28;20500;-70
2021/11/14 10:11:37;;;;;;;38.83;18.85;;;;;;;13.68;69.87;102468.38;5048631;28;20040;-70
2021/11/14 10:14:03;;;;;;;34.08;17.75;;;;;;;13.54;69.13;102475.88;5038996;28;20037;-69
2021/11/14 10:16:30;;;;;;;38.05;18.27;;;;;;;13.61;68.94;102474.31;5041710;28;20044;-69
2021/11/14 10:18:59;;;;;;;35.65;18.55;;;;;;;13.62;69.42;102469.09;5023480;28;20062;-71
2021/11/14 10:21:30;;;;;;;34.35;17.30;;;;;;;13.71;69.18;102469.38;5059383;28;20036;-71
2021/11/14 10:23:56;;;;;;;33.72;17.90;;;;;;;13.60;68.75;102476.03;5031321;28;20059;-71
2021/11/14 10:26:26;;;;;;;35.03;18.58;;;;;;;13.49;69.02;102473.97;5044135;28;20027;-71
2021/11/14 10:28:51;;;;;;;36.03;18.00;;;;;;;13.44;69.41;102479.09;5032157;28;20123;-71
2021/11/14 10:31:22;;;;;;;34.40;18.15;;;;;;;13.51;69.07;102474.91;5047052;28;20118;-70
2021/11/14 10:33:49;;;;;;;34.70;17.48;;;;;;;13.59;69.00;102483.88;5057702;28;20408;-72
2021/11/14 10:36:15;;;;;;;33.92;17.42;;;;;;;13.63;69.03;102488.34;5023027;28;20184;-72
2021/11/14 10:38:40;;;;;;;31.10;16.45;;;;;;;13.67;68.95;102490.19;5034764;28;20062;-72
2021/11/14 10:41:09;;;;;;;33.42;17.90;;;;;;;13.61;69.54;102487.41;5037663;28;20047;-70
2021/11/14 10:43:38;;;;;;;31.40;16.30;;;;;;;13.49;69.13;102487.97;5040464;28;20080;-70
2021/11/14 10:46:06;;;;;;;32.40;16.50;;;;;;;13.46;68.57;102492.25;5045501;28;20243;-72
2021/11/14 10:48:33;;;;;;;29.42;16.13;;;;;;;13.64;69.25;102496.25;5045987;28;20494;-74
2021/11/14 10:51:00;;;;;;;35.85;16.60;;;;;;;13.70;69.53;102496.41;5036372;28;20463;-71
2021/11/14 10:53:28;;;;;;;28.67;15.85;;;;;;;13.67;69.15;102498.94;5052313;28;20032;-71
2021/11/14 10:55:57;;;;;;;31.58;15.68;;;;;;;13.67;68.44;102504.19;5046841;28;20612;-71
2021/11/14 10:58:25;;;;;;;30.88;15.90;;;;;;;13.56;68.02;102505.63;5048167;28;20036;-70
2021/11/14 11:00:53;;;;;;;31.08;15.43;;;;;;;13.32;69.26;102516.31;5038445;28;20036;-71
2021/11/14 11:03:20;;;;;;;30.48;15.43;;;;;;;13.67;68.73;102511.16;5044025;28;20489;-71
2021/11/14 11:05:46;;;;;;;31.15;16.17;;;;;;;13.59;68.82;102515.31;5039148;28;20109;-72